Terminal Aerodrome Forecast
Issued by NWS

Home | Current Version | Previous Version | Text Only | Print | Product List | Glossary On
Versions: 1 2 3 4 5 6 7 8 9 10 11 12 13 14 15 16
000
FTUS45 KABQ 041100 RRA
TAFTCC
TAF
KTCC 041144Z 0412/0512 13006KT P6SM VCSH BKN025 BKN150
     FM041800 16012G20KT P6SM VCTS BKN070CB BKN090
      TEMPO 0419/0423 3SM +TSRA BR OVC050CB
     FM042300 16015KT 6SM TSRA OVC030CB
      AMD NOT SKED=

USA.gov is the U.S. government's official web portal to all federal, state and local government web resources and services.